createdAt,value
2023-04-02T00:01:49.468Z,91.60
2023-04-02T00:12:20.265Z,91.70
2023-04-02T00:22:44.780Z,91.60
2023-04-02T00:33:05.993Z,91.60
2023-04-02T00:43:33.214Z,91.60
2023-04-02T00:53:57.079Z,91.70
2023-04-02T01:05:02.869Z,92.00
2023-04-02T01:16:05.506Z,92.20
2023-04-02T01:26:47.993Z,92.30
2023-04-02T01:37:32.436Z,92.40
2023-04-02T01:47:53.924Z,92.40
2023-04-02T01:58:25.455Z,92.50
2023-04-02T02:08:59.712Z,92.70
2023-04-02T02:19:42.528Z,92.80
2023-04-02T02:30:19.494Z,93.00
2023-04-02T02:40:46.176Z,93.00
2023-04-02T02:51:47.046Z,93.20
2023-04-02T03:02:15.417Z,93.30
2023-04-02T03:12:58.532Z,93.40
2023-04-02T03:23:42.651Z,93.50
2023-04-02T03:34:32.901Z,93.50
2023-04-02T03:45:19.952Z,93.50
2023-04-02T03:55:42.974Z,93.60
2023-04-02T04:06:13.664Z,93.70
2023-04-02T04:17:15.788Z,93.70
2023-04-02T04:27:52.867Z,93.70
2023-04-02T04:38:27.729Z,93.70
2023-04-02T04:49:03.312Z,93.80
2023-04-02T04:59:36.431Z,93.80
2023-04-02T05:10:12.729Z,93.80
2023-04-02T05:20:52.172Z,93.70
2023-04-02T05:31:23.079Z,93.70
2023-04-02T05:41:47.505Z,93.60
2023-04-02T05:52:27.612Z,93.50
2023-04-02T06:03:00.032Z,93.50
2023-04-02T06:13:22.100Z,93.40
2023-04-02T06:24:03.568Z,93.50
2023-04-02T06:34:30.726Z,93.40
2023-04-02T06:45:01.633Z,93.30
2023-04-02T06:56:08.131Z,93.20
2023-04-02T07:06:30.310Z,92.90
2023-04-02T07:16:55.244Z,92.80
2023-04-02T07:27:16.926Z,92.50
2023-04-02T07:37:38.817Z,92.50
2023-04-02T07:48:09.949Z,92.40
2023-04-02T07:58:33.195Z,92.10
2023-04-02T08:08:55.123Z,92.20
2023-04-02T08:19:16.697Z,92.10
2023-04-02T08:29:38.400Z,92.00
2023-04-02T08:39:59.463Z,92.00
2023-04-02T08:50:40.335Z,92.20
2023-04-02T09:01:04.522Z,92.10
2023-04-02T09:11:56.996Z,92.00
2023-04-02T09:22:27.848Z,92.00
2023-04-02T09:32:52.675Z,91.80
2023-04-02T09:43:31.868Z,91.90
2023-04-02T09:54:14.103Z,91.50
2023-04-02T10:04:48.087Z,91.70
2023-04-02T10:15:20.389Z,92.00
2023-04-02T10:26:13.039Z,92.10
2023-04-02T10:36:52.598Z,92.40
2023-04-02T10:47:27.265Z,92.60
2023-04-02T10:57:48.938Z,92.70
2023-04-02T11:08:20.706Z,92.80
2023-04-02T11:18:44.818Z,92.70
2023-04-02T11:29:27.524Z,92.80
2023-04-02T11:39:59.402Z,92.40
2023-04-02T11:50:35.244Z,92.40
2023-04-02T12:01:07.894Z,92.40
2023-04-02T12:11:39.197Z,91.10
2023-04-02T12:22:01.143Z,90.10
2023-04-02T12:32:30.662Z,90.40
2023-04-02T12:42:51.846Z,91.30
2023-04-02T12:53:35.902Z,91.60
2023-04-02T13:04:12.458Z,91.90
2023-04-02T13:14:24.472Z,91.90
2023-04-02T13:24:45.923Z,92.20
2023-04-02T13:35:08.097Z,92.20
2023-04-02T13:45:35.046Z,92.10
2023-04-02T13:55:56.669Z,92.10
2023-04-02T14:07:01.685Z,92.20
2023-04-02T14:18:00.578Z,92.40
2023-04-02T14:28:43.843Z,92.40
2023-04-02T14:39:15.449Z,92.50
2023-04-02T14:49:42.860Z,92.60
2023-04-02T15:00:09.950Z,92.40
2023-04-02T15:10:38.981Z,92.50
2023-04-02T15:21:29.533Z,92.10
2023-04-02T15:31:54.917Z,92.00
2023-04-02T15:42:25.598Z,92.30
2023-04-02T15:53:39.784Z,92.30
2023-04-02T16:04:13.705Z,92.40
2023-04-02T16:14:28.461Z,92.50
2023-04-02T16:25:06.216Z,92.60
2023-04-02T16:36:14.403Z,92.70
2023-04-02T16:47:08.992Z,93.00
2023-04-02T16:57:48.179Z,93.00
2023-04-02T17:08:27.264Z,93.00
2023-04-02T17:18:53.144Z,93.00
2023-04-02T17:29:22.320Z,93.10
2023-04-02T17:40:13.310Z,93.10
2023-04-02T17:50:58.980Z,92.90
2023-04-02T18:01:39.803Z,92.80
2023-04-02T18:12:42.424Z,92.80
2023-04-02T18:23:57.053Z,91.90
2023-04-02T18:34:49.899Z,92.10
2023-04-02T18:45:35.506Z,92.00
2023-04-02T18:56:05.374Z,92.10
2023-04-02T19:06:42.029Z,92.30
2023-04-02T19:17:27.198Z,92.40
2023-04-02T19:28:12.628Z,92.50
2023-04-02T19:39:05.983Z,92.50
2023-04-02T19:49:33.522Z,92.10
2023-04-02T19:59:55.021Z,92.00
2023-04-02T20:10:16.668Z,92.10
2023-04-02T20:20:39.392Z,92.20
2023-04-02T20:31:17.727Z,92.40
2023-04-02T20:41:39.199Z,92.40
2023-04-02T20:52:00.824Z,92.40
2023-04-02T21:02:21.867Z,92.30
2023-04-02T21:12:42.922Z,92.30
2023-04-02T21:23:03.942Z,92.60
2023-04-02T21:33:25.565Z,92.60
2023-04-02T21:43:48.384Z,92.50
2023-04-02T21:54:10.179Z,92.40
2023-04-02T22:04:33.329Z,92.20
2023-04-02T22:14:54.626Z,92.30
2023-04-02T22:25:15.798Z,92.50
2023-04-02T22:35:37.959Z,92.60
2023-04-02T22:45:59.548Z,92.70
2023-04-02T22:56:26.720Z,92.90
2023-04-02T23:06:48.268Z,93.10
2023-04-02T23:17:09.327Z,93.10
2023-04-02T23:27:30.513Z,93.10
2023-04-02T23:37:51.774Z,93.10
2023-04-02T23:48:12.884Z,93.10
2023-04-02T23:58:34.615Z,93.30
